Aviation Digital Data Service (ADDS)

Output produced by METARs form (2208 UTC 28 May 2017)
found at http://aviationweather.gov/adds/metars/
 
KPVD 282019Z 2820/2918 18010KT P6SM FEW030 BKN150 
     FM290200 16006KT P6SM SCT200 
     FM290800 10006KT P6SM BKN140 
     FM291600 10009KT 3SM RA OVC025